createdAt,value
2017-10-30T00:00:13.591Z,74.55
2017-10-30T00:02:39.979Z,74.48
2017-10-30T00:05:06.335Z,75.01
2017-10-30T00:07:32.646Z,74.91
2017-10-30T00:09:58.953Z,74.67
2017-10-30T00:12:25.996Z,74.84
2017-10-30T00:14:53.242Z,74.75
2017-10-30T00:17:19.513Z,74.90
2017-10-30T00:19:45.798Z,75.15
2017-10-30T00:22:12.138Z,75.22
2017-10-30T00:24:38.535Z,75.28
2017-10-30T00:27:04.903Z,75.20
2017-10-30T00:29:31.302Z,75.14
2017-10-30T00:31:57.637Z,75.40
2017-10-30T00:34:23.944Z,75.74
2017-10-30T00:36:51.486Z,75.59
2017-10-30T00:39:17.791Z,75.57
2017-10-30T00:41:44.047Z,75.53
2017-10-30T00:44:10.717Z,75.41
2017-10-30T00:46:36.993Z,75.31
2017-10-30T00:49:03.301Z,76.08
2017-10-30T00:51:29.583Z,76.16
2017-10-30T00:53:56.584Z,76.08
2017-10-30T00:56:22.883Z,75.86
2017-10-30T00:58:49.285Z,75.95
2017-10-30T01:01:15.629Z,76.49
2017-10-30T01:03:42.722Z,76.19
2017-10-30T01:06:09.043Z,76.69
2017-10-30T01:08:36.214Z,76.44
2017-10-30T01:11:02.537Z,75.96
2017-10-30T01:13:28.810Z,75.87
2017-10-30T01:15:55.910Z,75.43
2017-10-30T01:18:22.232Z,75.61
2017-10-30T01:20:48.545Z,75.41
2017-10-30T01:23:15.599Z,75.35
2017-10-30T01:25:42.570Z,74.99
2017-10-30T01:28:09.308Z,74.87
2017-10-30T01:30:35.657Z,74.85
2017-10-30T01:33:01.961Z,74.98
2017-10-30T01:35:28.243Z,75.12
2017-10-30T01:37:54.644Z,75.40
2017-10-30T01:40:21.037Z,75.15
2017-10-30T01:42:48.066Z,75.09
2017-10-30T01:45:15.194Z,75.08
2017-10-30T01:47:41.539Z,74.83
2017-10-30T01:50:07.862Z,74.74
2017-10-30T01:52:34.206Z,74.40
2017-10-30T01:55:00.490Z,74.11
2017-10-30T01:57:26.785Z,74.50
2017-10-30T01:59:53.834Z,74.39
2017-10-30T02:02:21.016Z,74.54
2017-10-30T02:04:47.697Z,74.73
2017-10-30T02:07:14.865Z,74.41
2017-10-30T02:09:48.823Z,74.23
2017-10-30T02:12:15.315Z,74.21
2017-10-30T02:14:42.409Z,74.37
2017-10-30T02:17:08.700Z,74.36
2017-10-30T02:19:35.729Z,74.42
2017-10-30T02:22:02.792Z,74.30
2017-10-30T02:24:29.821Z,74.17
2017-10-30T02:26:56.148Z,74.84
2017-10-30T02:29:22.430Z,74.75
2017-10-30T02:31:48.879Z,74.81
2017-10-30T02:34:15.274Z,74.67
2017-10-30T02:36:42.314Z,74.24
2017-10-30T02:39:09.448Z,73.91
2017-10-30T02:41:35.775Z,74.07
2017-10-30T02:44:02.165Z,73.38
2017-10-30T02:46:28.568Z,73.24
2017-10-30T02:48:55.717Z,73.37
2017-10-30T02:51:23.771Z,73.44
2017-10-30T02:53:50.901Z,73.49
2017-10-30T02:56:17.262Z,72.76
2017-10-30T02:58:44.378Z,73.38
2017-10-30T03:01:17.884Z,73.52
2017-10-30T03:03:44.237Z,73.82
2017-10-30T03:06:11.329Z,73.25
2017-10-30T03:08:37.736Z,73.34
2017-10-30T03:11:04.069Z,72.83
2017-10-30T03:13:30.521Z,73.17
2017-10-30T03:15:56.822Z,72.59
2017-10-30T03:18:23.905Z,72.49
2017-10-30T03:20:50.197Z,72.63
2017-10-30T03:23:17.247Z,72.23
2017-10-30T03:25:44.391Z,72.48
2017-10-30T03:28:10.722Z,72.62
2017-10-30T03:30:37.073Z,72.78
2017-10-30T03:33:03.426Z,72.61
2017-10-30T03:35:29.784Z,72.26
2017-10-30T03:37:56.084Z,71.86
2017-10-30T03:40:22.444Z,71.70
2017-10-30T03:42:48.756Z,71.48
2017-10-30T03:45:15.116Z,71.21
2017-10-30T03:47:41.473Z,71.19
2017-10-30T03:50:08.626Z,71.78
2017-10-30T03:52:35.713Z,72.37
2017-10-30T03:55:02.086Z,72.78
2017-10-30T03:57:28.410Z,72.78
2017-10-30T03:59:55.729Z,72.43
2017-10-30T04:02:22.777Z,72.54
2017-10-30T04:04:49.145Z,72.42
2017-10-30T04:07:15.465Z,72.80
2017-10-30T04:09:41.771Z,72.25
2017-10-30T04:12:08.066Z,72.48
2017-10-30T04:14:34.362Z,71.80
2017-10-30T04:17:00.698Z,71.98
2017-10-30T04:19:26.966Z,71.40
2017-10-30T04:21:54.066Z,71.96
2017-10-30T04:24:20.436Z,71.77
2017-10-30T04:26:47.486Z,72.30
2017-10-30T04:29:13.820Z,71.50
2017-10-30T04:31:40.886Z,72.11
2017-10-30T04:34:07.327Z,72.19
2017-10-30T04:36:33.683Z,71.39
2017-10-30T04:39:00.077Z,71.65
2017-10-30T04:41:27.988Z,71.95
2017-10-30T04:43:55.546Z,71.81
2017-10-30T04:46:21.831Z,72.24
2017-10-30T04:48:48.186Z,72.92
2017-10-30T04:51:14.471Z,72.80
2017-10-30T04:53:40.821Z,72.83
2017-10-30T04:56:07.251Z,73.78
2017-10-30T04:58:33.612Z,73.52
2017-10-30T05:01:01.957Z,73.54
2017-10-30T05:03:28.319Z,73.11
2017-10-30T05:05:59.210Z,73.02
2017-10-30T05:08:25.503Z,72.86
2017-10-30T05:10:51.874Z,72.71
2017-10-30T05:13:18.412Z,73.17
2017-10-30T05:15:44.734Z,73.24
2017-10-30T05:18:11.070Z,73.12
2017-10-30T05:20:37.429Z,73.20
2017-10-30T05:23:03.725Z,73.49
2017-10-30T05:25:30.030Z,73.82
2017-10-30T05:27:56.473Z,74.00
2017-10-30T05:30:22.826Z,74.32
2017-10-30T05:32:49.171Z,74.40
2017-10-30T05:35:15.572Z,74.13
2017-10-30T05:37:42.087Z,73.60
2017-10-30T05:40:08.475Z,74.47
2017-10-30T05:42:34.860Z,74.31
2017-10-30T05:45:01.193Z,75.65
2017-10-30T05:47:29.708Z,75.86
2017-10-30T05:49:56.275Z,76.01
2017-10-30T05:52:22.674Z,75.86
2017-10-30T05:54:49.168Z,75.98
2017-10-30T05:57:15.468Z,75.66
2017-10-30T05:59:41.799Z,75.49
2017-10-30T06:02:08.904Z,75.93
2017-10-30T06:04:35.298Z,75.33
2017-10-30T06:07:01.838Z,75.11
2017-10-30T06:09:29.107Z,75.17
2017-10-30T06:11:55.500Z,75.26
2017-10-30T06:14:22.628Z,75.05
2017-10-30T06:16:48.980Z,74.30
2017-10-30T06:19:16.126Z,75.07
2017-10-30T06:21:43.215Z,74.31
2017-10-30T06:24:09.520Z,75.16
2017-10-30T06:26:36.616Z,75.21
2017-10-30T06:29:03.070Z,75.15
2017-10-30T06:31:29.370Z,75.31
2017-10-30T06:33:55.850Z,75.49
2017-10-30T06:36:23.043Z,74.74
2017-10-30T06:38:49.380Z,74.07
2017-10-30T06:41:15.677Z,73.65
2017-10-30T06:43:42.733Z,73.60
2017-10-30T06:46:09.771Z,73.94
2017-10-30T06:48:36.812Z,73.30
2017-10-30T06:51:03.975Z,73.27
2017-10-30T06:53:31.044Z,72.25
2017-10-30T06:55:57.425Z,72.93
2017-10-30T06:58:24.093Z,72.93
2017-10-30T07:00:50.764Z,73.41
2017-10-30T07:03:17.129Z,72.86
2017-10-30T07:05:43.485Z,73.04
2017-10-30T07:08:09.874Z,73.00
2017-10-30T07:10:36.601Z,72.84
2017-10-30T07:13:02.924Z,73.03
2017-10-30T07:15:29.228Z,72.01
2017-10-30T07:17:56.400Z,72.06
2017-10-30T07:20:22.704Z,71.86
2017-10-30T07:22:49.927Z,72.09
2017-10-30T07:25:16.284Z,71.62
2017-10-30T07:27:43.436Z,71.69
2017-10-30T07:30:09.941Z,71.89
2017-10-30T07:32:36.370Z,71.47
2017-10-30T07:35:02.722Z,71.31
2017-10-30T07:37:29.149Z,71.79
2017-10-30T07:39:55.567Z,70.35
2017-10-30T07:42:21.964Z,71.52
2017-10-30T07:44:48.283Z,71.60
2017-10-30T07:47:14.602Z,72.26
2017-10-30T07:49:41.744Z,71.00
2017-10-30T07:52:08.149Z,69.92
2017-10-30T07:54:34.816Z,71.01
2017-10-30T07:57:01.993Z,70.32
2017-10-30T07:59:28.325Z,69.33
2017-10-30T08:01:54.689Z,68.74
2017-10-30T08:04:21.260Z,69.80
2017-10-30T08:06:47.623Z,68.97
2017-10-30T08:09:15.115Z,67.53
2017-10-30T08:11:47.410Z,66.61
2017-10-30T08:14:13.822Z,67.74
2017-10-30T08:16:40.170Z,68.53
2017-10-30T08:19:06.527Z,69.83
2017-10-30T08:21:33.165Z,69.74
2017-10-30T08:24:00.541Z,69.15
2017-10-30T08:26:27.483Z,69.94
2017-10-30T08:28:55.717Z,70.59
2017-10-30T08:31:22.318Z,69.55
2017-10-30T08:33:49.346Z,69.07
2017-10-30T08:36:15.667Z,68.00
2017-10-30T08:38:43.727Z,67.09
2017-10-30T08:41:10.226Z,65.88
2017-10-30T08:43:36.774Z,66.11
2017-10-30T08:46:03.445Z,66.89
2017-10-30T08:48:30.568Z,65.67
2017-10-30T08:50:56.940Z,65.04
2017-10-30T08:53:30.530Z,65.53
2017-10-30T08:55:57.079Z,65.70
2017-10-30T08:58:23.574Z,64.85
2017-10-30T09:00:50.250Z,64.84
2017-10-30T09:03:17.423Z,64.94
2017-10-30T09:05:43.886Z,65.40
2017-10-30T09:08:10.278Z,63.15
2017-10-30T09:10:36.649Z,61.98
2017-10-30T09:13:09.302Z,62.54
2017-10-30T09:15:35.734Z,62.11
2017-10-30T09:18:02.093Z,61.92
2017-10-30T09:20:28.460Z,61.18
2017-10-30T09:22:55.584Z,61.65
2017-10-30T09:25:21.928Z,61.24
2017-10-30T09:28:05.774Z,61.13
2017-10-30T09:30:32.339Z,61.09
2017-10-30T09:33:00.463Z,59.34
2017-10-30T09:35:35.037Z,59.64
2017-10-30T09:38:01.495Z,60.32
2017-10-30T09:40:29.958Z,59.92
2017-10-30T09:42:57.066Z,59.92
2017-10-30T09:45:23.391Z,59.80
2017-10-30T09:47:49.867Z,59.14
2017-10-30T09:50:16.984Z,58.72
2017-10-30T09:52:43.400Z,58.72
2017-10-30T09:55:10.637Z,57.20
2017-10-30T09:57:37.056Z,56.13
2017-10-30T10:00:03.544Z,55.40
2017-10-30T10:02:29.832Z,55.31
2017-10-30T10:04:56.301Z,55.52
2017-10-30T10:07:22.697Z,54.83
2017-10-30T10:09:50.156Z,57.45
2017-10-30T10:12:16.848Z,57.29
2017-10-30T10:14:44.056Z,56.41
2017-10-30T10:17:10.406Z,56.32
2017-10-30T10:19:36.900Z,54.11
2017-10-30T10:22:03.263Z,53.48
2017-10-30T10:24:29.810Z,53.35
2017-10-30T10:26:56.278Z,54.05
2017-10-30T10:29:23.352Z,54.02
2017-10-30T10:31:49.785Z,52.89
2017-10-30T10:34:16.281Z,52.43
2017-10-30T10:36:42.675Z,53.48
2017-10-30T10:39:09.078Z,51.44
2017-10-30T10:41:35.537Z,50.05
2017-10-30T10:44:01.979Z,50.86
2017-10-30T10:46:28.315Z,50.49
2017-10-30T10:48:54.724Z,49.83
2017-10-30T10:51:21.108Z,49.24
2017-10-30T10:53:47.452Z,48.09
2017-10-30T10:56:14.595Z,48.91
2017-10-30T10:58:40.990Z,50.01
2017-10-30T11:01:07.339Z,50.65
2017-10-30T11:03:33.809Z,48.61
2017-10-30T11:06:00.869Z,49.39
2017-10-30T11:08:27.225Z,47.60
2017-10-30T11:10:53.578Z,47.26
2017-10-30T11:13:19.962Z,47.60
2017-10-30T11:15:47.052Z,47.78
2017-10-30T11:18:14.170Z,44.39
2017-10-30T11:20:40.666Z,39.73
2017-10-30T11:23:07.040Z,39.04
2017-10-30T11:25:33.353Z,40.81
2017-10-30T11:28:00.569Z,43.20
2017-10-30T11:30:27.022Z,41.52
2017-10-30T11:33:00.767Z,39.29
2017-10-30T11:35:27.133Z,43.12
2017-10-30T11:37:53.516Z,42.51
2017-10-30T11:40:20.602Z,42.29
2017-10-30T11:42:47.026Z,44.26
2017-10-30T11:45:13.488Z,39.82
2017-10-30T11:47:39.859Z,40.70
2017-10-30T11:50:06.997Z,42.91
2017-10-30T11:52:34.103Z,42.67
2017-10-30T11:55:00.481Z,37.73
2017-10-30T11:57:27.573Z,33.68
2017-10-30T11:59:53.959Z,35.08
2017-10-30T12:02:20.351Z,31.17
2017-10-30T12:04:46.808Z,31.00
2017-10-30T12:07:13.258Z,28.51
2017-10-30T12:09:39.676Z,28.62
2017-10-30T12:12:06.017Z,27.37
2017-10-30T12:14:32.553Z,26.25
2017-10-30T12:16:58.895Z,28.21
2017-10-30T12:19:26.023Z,29.74
2017-10-30T12:21:52.380Z,30.62
2017-10-30T12:24:19.536Z,27.69
2017-10-30T12:26:46.787Z,25.69
2017-10-30T12:29:13.881Z,25.68
2017-10-30T12:31:40.259Z,26.73
2017-10-30T12:34:07.680Z,29.88
2017-10-30T12:36:34.142Z,27.98
2017-10-30T12:39:00.559Z,31.03
2017-10-30T12:41:26.901Z,35.87
2017-10-30T12:43:53.248Z,36.74
2017-10-30T12:46:20.367Z,32.01
2017-10-30T12:48:46.684Z,27.81
2017-10-30T12:51:13.108Z,25.38
2017-10-30T12:53:39.437Z,24.65
2017-10-30T12:56:05.865Z,22.40
2017-10-30T12:58:32.180Z,24.81
2017-10-30T13:00:58.465Z,22.89
2017-10-30T13:03:24.851Z,20.17
2017-10-30T13:05:51.196Z,20.46
2017-10-30T13:08:17.636Z,19.80
2017-10-30T13:10:44.025Z,21.89
2017-10-30T13:13:11.180Z,23.87
2017-10-30T13:15:38.217Z,25.39
2017-10-30T13:18:05.598Z,26.92
2017-10-30T13:20:31.980Z,29.52
2017-10-30T13:22:58.429Z,34.01
2017-10-30T13:25:24.702Z,37.32
2017-10-30T13:27:50.996Z,39.02
2017-10-30T13:30:18.149Z,35.06
2017-10-30T13:32:45.358Z,38.18
2017-10-30T13:35:11.831Z,37.01
2017-10-30T13:37:38.990Z,33.96
2017-10-30T13:40:06.250Z,33.48
2017-10-30T13:42:33.649Z,32.56
2017-10-30T13:44:59.997Z,33.08
2017-10-30T13:47:26.494Z,35.63
2017-10-30T13:49:52.904Z,35.31
2017-10-30T13:52:20.014Z,36.69
2017-10-30T13:54:46.473Z,38.00
2017-10-30T13:57:12.838Z,39.15
2017-10-30T13:59:39.523Z,40.35
2017-10-30T14:02:05.824Z,41.10
2017-10-30T14:04:32.281Z,42.16
2017-10-30T14:06:58.755Z,41.74
2017-10-30T14:09:25.864Z,42.18
2017-10-30T14:11:52.220Z,41.87
2017-10-30T14:14:18.546Z,41.82
2017-10-30T14:16:46.357Z,40.43
2017-10-30T14:19:12.678Z,36.68
2017-10-30T14:21:39.022Z,38.27
2017-10-30T14:24:05.426Z,36.19
2017-10-30T14:26:32.481Z,38.16
2017-10-30T14:28:59.545Z,40.65
2017-10-30T14:31:25.940Z,42.43
2017-10-30T14:33:52.241Z,43.59
2017-10-30T14:36:18.571Z,43.61
2017-10-30T14:38:45.008Z,43.72
2017-10-30T14:41:11.459Z,43.83
2017-10-30T14:43:37.934Z,43.60
2017-10-30T14:46:04.410Z,44.06
2017-10-30T14:48:30.790Z,43.79
2017-10-30T14:50:57.842Z,44.08
2017-10-30T14:53:24.247Z,44.01
2017-10-30T14:55:50.554Z,44.20
2017-10-30T14:58:16.970Z,44.82
2017-10-30T15:00:43.346Z,44.75
2017-10-30T15:03:09.694Z,44.85
2017-10-30T15:05:37.033Z,44.07
2017-10-30T15:08:03.484Z,44.07
2017-10-30T15:10:30.177Z,44.57
2017-10-30T15:12:56.545Z,44.46
2017-10-30T15:15:22.921Z,45.01
2017-10-30T15:17:49.371Z,44.98
2017-10-30T15:20:15.809Z,45.50
2017-10-30T15:22:42.296Z,45.57
2017-10-30T15:25:09.419Z,45.73
2017-10-30T15:27:35.934Z,46.09
2017-10-30T15:30:02.388Z,45.84
2017-10-30T15:32:28.869Z,45.79
2017-10-30T15:34:55.253Z,46.26
2017-10-30T15:37:23.738Z,46.21
2017-10-30T15:39:50.122Z,46.61
2017-10-30T15:42:16.563Z,46.93
2017-10-30T15:44:42.927Z,47.99
2017-10-30T15:47:09.356Z,48.68
2017-10-30T15:49:35.873Z,49.51
2017-10-30T15:52:02.341Z,49.98
2017-10-30T15:54:28.767Z,50.52
2017-10-30T15:56:55.397Z,51.61
2017-10-30T15:59:21.793Z,53.00
2017-10-30T16:01:48.161Z,53.12
2017-10-30T16:04:14.527Z,53.00
2017-10-30T16:06:40.945Z,53.24
2017-10-30T16:09:07.729Z,52.93
2017-10-30T16:11:34.101Z,53.15
2017-10-30T16:14:01.880Z,53.61
2017-10-30T16:16:28.198Z,53.29
2017-10-30T16:18:54.636Z,53.68
2017-10-30T16:21:21.013Z,53.89
2017-10-30T16:23:48.038Z,53.94
2017-10-30T16:26:14.802Z,53.61
2017-10-30T16:28:41.204Z,53.41
2017-10-30T16:31:07.518Z,53.27
2017-10-30T16:33:33.882Z,53.35
2017-10-30T16:36:00.960Z,52.59
2017-10-30T16:38:27.335Z,53.04
2017-10-30T16:40:53.762Z,52.67
2017-10-30T16:43:20.127Z,52.47
2017-10-30T16:45:47.223Z,52.72
2017-10-30T16:48:13.546Z,52.71
2017-10-30T16:50:39.816Z,53.15
2017-10-30T16:53:06.575Z,53.48
2017-10-30T16:55:32.844Z,53.72
2017-10-30T16:57:59.225Z,54.09
2017-10-30T17:00:25.561Z,54.25
2017-10-30T17:02:51.995Z,54.14
2017-10-30T17:05:19.107Z,54.16
2017-10-30T17:07:45.444Z,53.69
2017-10-30T17:10:11.766Z,54.11
2017-10-30T17:12:38.104Z,54.35
2017-10-30T17:15:04.472Z,54.36
2017-10-30T17:17:30.869Z,54.52
2017-10-30T17:19:57.404Z,54.69
2017-10-30T17:22:23.875Z,54.70
2017-10-30T17:24:51.131Z,54.67
2017-10-30T17:27:18.204Z,54.95
2017-10-30T17:29:44.542Z,55.25
2017-10-30T17:32:10.887Z,54.62
2017-10-30T17:34:37.362Z,55.05
2017-10-30T17:37:03.698Z,55.35
2017-10-30T17:39:30.021Z,55.19
2017-10-30T17:41:57.140Z,54.92
2017-10-30T17:44:23.434Z,54.94
2017-10-30T17:46:49.772Z,55.24
2017-10-30T17:49:16.863Z,55.91
2017-10-30T17:51:43.240Z,55.87
2017-10-30T17:54:10.543Z,55.97
2017-10-30T17:56:36.839Z,55.54
2017-10-30T17:59:03.895Z,55.83
2017-10-30T18:01:30.286Z,55.99
2017-10-30T18:03:56.665Z,56.27
2017-10-30T18:06:23.005Z,56.54
2017-10-30T18:08:49.313Z,56.38
2017-10-30T18:11:16.355Z,56.46
2017-10-30T18:13:43.389Z,56.92
2017-10-30T18:16:10.530Z,57.54
2017-10-30T18:18:36.946Z,57.42
2017-10-30T18:21:03.352Z,57.87
2017-10-30T18:23:29.742Z,57.89
2017-10-30T18:25:56.046Z,58.26
2017-10-30T18:28:22.497Z,58.81
2017-10-30T18:30:48.892Z,58.56
2017-10-30T18:33:15.218Z,58.61
2017-10-30T18:35:41.581Z,58.91
2017-10-30T18:38:08.010Z,58.84
2017-10-30T18:40:34.487Z,58.91
2017-10-30T18:43:00.836Z,59.40
2017-10-30T18:45:27.160Z,59.68
2017-10-30T18:47:53.474Z,59.85
2017-10-30T18:50:20.581Z,59.90
2017-10-30T18:52:46.989Z,59.86
2017-10-30T18:55:13.355Z,60.31
2017-10-30T18:57:39.654Z,60.13
2017-10-30T19:00:06.021Z,60.36
2017-10-30T19:02:32.386Z,60.30
2017-10-30T19:04:59.425Z,60.03
2017-10-30T19:07:25.917Z,60.05
2017-10-30T19:09:52.358Z,59.66
2017-10-30T19:12:18.691Z,59.45
2017-10-30T19:14:45.076Z,59.60
2017-10-30T19:17:11.675Z,59.86
2017-10-30T19:19:38.130Z,59.54
2017-10-30T19:22:05.203Z,59.39
2017-10-30T19:24:31.606Z,59.24
2017-10-30T19:26:58.755Z,59.42
2017-10-30T19:29:25.199Z,59.70
2017-10-30T19:31:52.300Z,59.48
2017-10-30T19:34:18.704Z,59.68
2017-10-30T19:36:45.170Z,59.59
2017-10-30T19:39:11.568Z,59.29
2017-10-30T19:41:38.031Z,58.54
2017-10-30T19:44:04.352Z,58.58
2017-10-30T19:46:30.783Z,58.58
2017-10-30T19:48:57.138Z,58.53
2017-10-30T19:51:23.561Z,58.30
2017-10-30T19:53:49.891Z,58.40
2017-10-30T19:56:16.196Z,58.67
2017-10-30T19:58:42.571Z,58.56
2017-10-30T20:01:08.930Z,58.55
2017-10-30T20:03:35.386Z,58.62
2017-10-30T20:06:07.954Z,58.67
2017-10-30T20:08:41.190Z,58.88
2017-10-30T20:11:13.758Z,58.96
2017-10-30T20:13:40.328Z,59.21
2017-10-30T20:16:06.809Z,58.89
2017-10-30T20:18:33.080Z,59.27
2017-10-30T20:20:59.418Z,59.75
2017-10-30T20:23:25.848Z,59.52
2017-10-30T20:25:52.202Z,59.83
2017-10-30T20:28:18.469Z,60.06
2017-10-30T20:30:44.831Z,60.37
2017-10-30T20:33:11.133Z,60.17
2017-10-30T20:35:37.466Z,59.75
2017-10-30T20:38:04.107Z,59.85
2017-10-30T20:40:30.429Z,60.17
2017-10-30T20:42:56.741Z,60.21
2017-10-30T20:45:23.872Z,60.00
2017-10-30T20:47:50.191Z,59.90
2017-10-30T20:50:17.002Z,60.52
2017-10-30T20:52:43.561Z,60.57
2017-10-30T20:55:09.923Z,60.96
2017-10-30T20:57:36.992Z,61.15
2017-10-30T21:00:03.331Z,60.97
2017-10-30T21:02:29.706Z,61.57
2017-10-30T21:04:57.218Z,62.32
2017-10-30T21:07:23.570Z,62.88
2017-10-30T21:09:49.950Z,63.03
2017-10-30T21:12:16.250Z,63.14
2017-10-30T21:14:42.577Z,63.75
2017-10-30T21:17:08.922Z,63.54
2017-10-30T21:19:35.231Z,63.91
2017-10-30T21:22:01.576Z,63.40
2017-10-30T21:24:27.930Z,63.66
2017-10-30T21:26:54.386Z,64.19
2017-10-30T21:29:21.444Z,64.54
2017-10-30T21:31:48.534Z,65.29
2017-10-30T21:34:14.878Z,65.81
2017-10-30T21:36:41.259Z,65.71
2017-10-30T21:39:08.315Z,66.47
2017-10-30T21:41:34.606Z,66.50
2017-10-30T21:44:00.899Z,66.44
2017-10-30T21:46:27.230Z,66.34
2017-10-30T21:48:53.544Z,66.52
2017-10-30T21:51:19.853Z,66.70
2017-10-30T21:53:46.936Z,67.59
2017-10-30T21:56:13.267Z,68.05
2017-10-30T21:58:39.643Z,68.12
2017-10-30T22:01:05.954Z,68.03
2017-10-30T22:03:32.302Z,67.84
2017-10-30T22:05:58.686Z,68.34
2017-10-30T22:08:25.095Z,67.92
2017-10-30T22:10:51.484Z,68.62
2017-10-30T22:13:17.793Z,68.92
2017-10-30T22:15:44.949Z,68.80
2017-10-30T22:18:14.109Z,69.38
2017-10-30T22:20:41.156Z,69.32
2017-10-30T22:23:08.279Z,68.98
2017-10-30T22:25:34.596Z,68.74
2017-10-30T22:28:01.055Z,69.66
2017-10-30T22:30:27.429Z,69.30
2017-10-30T22:32:53.743Z,69.47
2017-10-30T22:35:20.041Z,69.65
2017-10-30T22:37:46.436Z,69.51
2017-10-30T22:40:12.740Z,69.26
2017-10-30T22:42:39.068Z,68.96
2017-10-30T22:45:05.385Z,68.59
2017-10-30T22:47:32.461Z,68.83
2017-10-30T22:49:58.741Z,69.02
2017-10-30T22:52:25.079Z,68.83
2017-10-30T22:54:52.166Z,69.39
2017-10-30T22:57:18.490Z,70.35
2017-10-30T22:59:44.797Z,70.75
2017-10-30T23:02:11.837Z,70.32
2017-10-30T23:04:38.182Z,70.62
2017-10-30T23:07:05.262Z,70.30
2017-10-30T23:09:31.532Z,70.98
2017-10-30T23:11:57.826Z,70.87
2017-10-30T23:14:24.160Z,71.28
2017-10-30T23:16:51.317Z,71.03
2017-10-30T23:19:17.643Z,71.61
2017-10-30T23:21:44.027Z,71.52
2017-10-30T23:24:10.367Z,70.92
2017-10-30T23:26:37.445Z,71.32
2017-10-30T23:29:03.741Z,71.85
2017-10-30T23:31:30.097Z,72.85
2017-10-30T23:33:56.435Z,73.50
2017-10-30T23:36:22.915Z,73.31
2017-10-30T23:38:49.526Z,72.70
2017-10-30T23:41:15.826Z,73.83
2017-10-30T23:43:42.956Z,73.61
2017-10-30T23:46:10.052Z,73.35
2017-10-30T23:48:36.331Z,73.00
2017-10-30T23:51:02.640Z,73.18
2017-10-30T23:53:29.221Z,72.97
2017-10-30T23:55:56.322Z,72.91
2017-10-30T23:58:23.295Z,72.90
